createdAt,value
2017-10-20T00:00:44.865Z,17.00
2017-10-20T00:01:44.790Z,17.03
2017-10-20T00:02:44.706Z,17.04
2017-10-20T00:03:44.632Z,17.14
2017-10-20T00:04:44.548Z,17.17
2017-10-20T00:05:44.469Z,17.14
2017-10-20T00:06:44.384Z,17.10
2017-10-20T00:07:44.309Z,17.14
2017-10-20T00:08:44.239Z,17.22
2017-10-20T00:09:44.147Z,17.26
2017-10-20T00:10:44.068Z,17.20
2017-10-20T00:11:43.987Z,17.25
2017-10-20T00:12:43.904Z,17.23
2017-10-20T00:13:43.832Z,17.26
2017-10-20T00:14:43.739Z,17.22
2017-10-20T00:15:43.672Z,17.17
2017-10-20T00:16:43.608Z,17.25
2017-10-20T00:17:43.498Z,17.13
2017-10-20T00:18:43.424Z,17.11
2017-10-20T00:19:43.340Z,17.18
2017-10-20T00:20:43.262Z,17.17
2017-10-20T00:21:43.184Z,17.08
2017-10-20T00:22:43.105Z,17.15
2017-10-20T00:23:43.032Z,16.99
2017-10-20T00:24:42.939Z,17.00
2017-10-20T00:25:42.868Z,17.00
2017-10-20T00:26:42.776Z,17.13
2017-10-20T00:27:42.699Z,17.06
2017-10-20T00:28:42.627Z,17.17
2017-10-20T00:29:42.547Z,17.22
2017-10-20T00:30:42.457Z,17.13
2017-10-20T00:31:42.376Z,17.18
2017-10-20T00:32:42.301Z,17.22
2017-10-20T00:33:42.215Z,17.25
2017-10-20T00:34:42.142Z,17.22
2017-10-20T00:35:42.052Z,17.22
2017-10-20T00:36:41.978Z,17.17
2017-10-20T00:37:41.895Z,17.18
2017-10-20T00:38:41.815Z,17.23
2017-10-20T00:39:41.747Z,17.30
2017-10-20T00:40:41.655Z,17.26
2017-10-20T00:41:41.575Z,17.25
2017-10-20T00:42:41.506Z,17.17
2017-10-20T00:43:41.408Z,17.23
2017-10-20T00:44:41.335Z,17.23
2017-10-20T00:45:41.260Z,17.23
2017-10-20T00:46:41.174Z,17.25
2017-10-20T00:47:41.107Z,17.18
2017-10-20T00:48:41.016Z,17.23
2017-10-20T00:49:40.936Z,17.29
2017-10-20T00:50:40.857Z,17.29
2017-10-20T00:51:40.777Z,17.28
2017-10-20T00:52:40.691Z,17.32
2017-10-20T00:53:40.613Z,17.23
2017-10-20T00:54:40.531Z,17.22
2017-10-20T00:55:40.464Z,17.28
2017-10-20T00:56:40.380Z,17.08
2017-10-20T00:57:40.293Z,17.03
2017-10-20T00:58:40.211Z,17.11
2017-10-20T00:59:40.176Z,17.06
2017-10-20T01:00:40.059Z,17.04
2017-10-20T01:01:39.973Z,17.14
2017-10-20T01:02:39.893Z,17.08
2017-10-20T01:03:39.817Z,17.20
2017-10-20T01:04:39.735Z,17.25
2017-10-20T01:05:39.670Z,17.18
2017-10-20T01:06:39.586Z,17.20
2017-10-20T01:07:39.489Z,17.15
2017-10-20T01:08:39.420Z,17.17
2017-10-20T01:09:39.342Z,17.22
2017-10-20T01:10:39.254Z,17.14
2017-10-20T01:11:39.166Z,17.14
2017-10-20T01:12:39.096Z,17.18
2017-10-20T01:13:39.011Z,17.14
2017-10-20T01:14:38.924Z,17.22
2017-10-20T01:15:38.846Z,17.17
2017-10-20T01:16:38.765Z,17.17
2017-10-20T01:17:38.687Z,17.15
2017-10-20T01:18:38.607Z,17.08
2017-10-20T01:19:38.569Z,17.08
2017-10-20T01:20:38.454Z,17.04
2017-10-20T01:21:38.371Z,16.93
2017-10-20T01:22:38.280Z,17.00
2017-10-20T01:23:38.210Z,16.93
2017-10-20T01:24:38.124Z,16.95
2017-10-20T01:25:38.066Z,17.00
2017-10-20T01:26:37.964Z,16.86
2017-10-20T01:27:37.884Z,16.92
2017-10-20T01:28:37.806Z,16.75
2017-10-20T01:29:37.731Z,16.90
2017-10-20T01:30:37.642Z,16.90
2017-10-20T01:31:37.560Z,16.89
2017-10-20T01:32:37.495Z,17.03
2017-10-20T01:33:37.395Z,17.07
2017-10-20T01:34:37.319Z,17.17
2017-10-20T01:35:37.248Z,17.20
2017-10-20T01:36:37.164Z,17.08
2017-10-20T01:37:37.078Z,17.13
2017-10-20T01:38:37.005Z,17.06
2017-10-20T01:39:36.926Z,17.10
2017-10-20T01:40:36.843Z,16.99
2017-10-20T01:41:36.763Z,17.06
2017-10-20T01:42:36.682Z,17.06
2017-10-20T01:43:36.594Z,17.04
2017-10-20T01:44:36.514Z,16.96
2017-10-20T01:45:36.433Z,16.74
2017-10-20T01:46:36.352Z,16.70
2017-10-20T01:47:36.270Z,16.77
2017-10-20T01:48:36.197Z,16.71
2017-10-20T01:49:36.107Z,16.63
2017-10-20T01:50:36.025Z,16.70
2017-10-20T01:51:35.948Z,16.77
2017-10-20T01:52:35.862Z,16.68
2017-10-20T01:53:35.795Z,16.53
2017-10-20T01:54:35.700Z,16.34
2017-10-20T01:55:35.620Z,16.68
2017-10-20T01:56:35.541Z,16.77
2017-10-20T01:57:35.460Z,16.90
2017-10-20T01:58:35.382Z,16.85
2017-10-20T01:59:35.293Z,16.65
2017-10-20T02:00:35.219Z,16.81
2017-10-20T02:01:35.141Z,16.74
2017-10-20T02:02:35.048Z,16.70
2017-10-20T02:03:34.972Z,16.67
2017-10-20T02:04:34.895Z,16.60
2017-10-20T02:05:34.811Z,16.68
2017-10-20T02:06:34.727Z,16.59
2017-10-20T02:07:34.653Z,16.59
2017-10-20T02:08:34.596Z,16.73
2017-10-20T02:09:34.488Z,16.75
2017-10-20T02:10:34.403Z,16.89
2017-10-20T02:11:34.326Z,16.88
2017-10-20T02:12:34.244Z,16.95
2017-10-20T02:13:34.165Z,16.86
2017-10-20T02:14:34.082Z,16.95
2017-10-20T02:15:34.007Z,16.88
2017-10-20T02:16:33.921Z,16.92
2017-10-20T02:17:33.844Z,16.89
2017-10-20T02:18:33.758Z,16.88
2017-10-20T02:19:33.688Z,16.92
2017-10-20T02:20:33.603Z,16.81
2017-10-20T02:21:33.523Z,16.88
2017-10-20T02:22:33.437Z,16.85
2017-10-20T02:23:33.359Z,16.86
2017-10-20T02:24:33.281Z,16.81
2017-10-20T02:25:33.199Z,16.81
2017-10-20T02:26:33.126Z,16.93
2017-10-20T02:27:33.036Z,16.86
2017-10-20T02:28:32.959Z,16.98
2017-10-20T02:29:32.878Z,16.86
2017-10-20T02:30:32.792Z,16.89
2017-10-20T02:31:32.710Z,16.83
2017-10-20T02:32:32.632Z,16.74
2017-10-20T02:33:32.557Z,16.68
2017-10-20T02:34:32.485Z,16.68
2017-10-20T02:35:32.394Z,16.52
2017-10-20T02:36:32.308Z,16.70
2017-10-20T02:37:32.239Z,16.75
2017-10-20T02:38:32.146Z,16.81
2017-10-20T02:39:32.065Z,16.89
2017-10-20T02:40:31.990Z,16.80
2017-10-20T02:41:31.908Z,16.83
2017-10-20T02:42:31.847Z,16.80
2017-10-20T02:43:31.741Z,16.68
2017-10-20T02:44:31.657Z,16.41
2017-10-20T02:45:31.584Z,16.00
2017-10-20T02:46:31.500Z,15.99
2017-10-20T02:47:31.424Z,16.00
2017-10-20T02:48:31.338Z,16.03
2017-10-20T02:49:31.266Z,16.03
2017-10-20T02:50:31.188Z,16.27
2017-10-20T02:51:31.108Z,16.45
2017-10-20T02:52:31.014Z,16.59
2017-10-20T02:53:30.932Z,16.60
2017-10-20T02:54:31.096Z,16.60
2017-10-20T02:55:30.774Z,16.71
2017-10-20T02:56:30.700Z,16.65
2017-10-20T02:57:30.616Z,16.70
2017-10-20T02:58:30.529Z,16.71
2017-10-20T02:59:30.447Z,16.60
2017-10-20T03:00:30.369Z,16.71
2017-10-20T03:01:30.289Z,16.80
2017-10-20T03:02:30.211Z,16.75
2017-10-20T03:03:30.137Z,16.77
2017-10-20T03:04:30.044Z,16.70
2017-10-20T03:05:29.961Z,16.65
2017-10-20T03:06:29.891Z,16.63
2017-10-20T03:07:29.805Z,16.68
2017-10-20T03:08:29.740Z,16.62
2017-10-20T03:09:29.646Z,16.73
2017-10-20T03:10:29.555Z,16.77
2017-10-20T03:11:29.484Z,16.67
2017-10-20T03:12:29.400Z,16.67
2017-10-20T03:13:29.315Z,16.70
2017-10-20T03:14:29.234Z,16.67
2017-10-20T03:15:29.160Z,16.67
2017-10-20T03:16:29.075Z,16.74
2017-10-20T03:17:28.993Z,16.67
2017-10-20T03:18:28.912Z,16.67
2017-10-20T03:19:28.832Z,16.77
2017-10-20T03:20:28.752Z,16.74
2017-10-20T03:21:28.669Z,16.60
2017-10-20T03:22:28.590Z,16.60
2017-10-20T03:23:28.522Z,16.26
2017-10-20T03:24:28.438Z,16.12
2017-10-20T03:25:28.346Z,16.34
2017-10-20T03:26:28.268Z,16.18
2017-10-20T03:27:28.183Z,16.09
2017-10-20T03:28:28.102Z,16.06
2017-10-20T03:29:28.024Z,15.99
2017-10-20T03:30:27.945Z,16.07
2017-10-20T03:31:27.867Z,16.26
2017-10-20T03:32:27.777Z,15.94
2017-10-20T03:33:27.694Z,15.85
2017-10-20T03:34:27.644Z,16.00
2017-10-20T03:35:27.535Z,16.12
2017-10-20T03:36:27.455Z,16.01
2017-10-20T03:37:27.373Z,16.01
2017-10-20T03:38:27.298Z,16.26
2017-10-20T03:39:27.215Z,16.40
2017-10-20T03:40:27.131Z,16.50
2017-10-20T03:41:27.052Z,16.50
2017-10-20T03:42:26.968Z,16.60
2017-10-20T03:43:26.890Z,16.67
2017-10-20T03:44:26.804Z,16.63
2017-10-20T03:45:26.733Z,16.63
2017-10-20T03:46:26.643Z,16.52
2017-10-20T03:47:26.609Z,16.55
2017-10-20T03:48:26.500Z,16.49
2017-10-20T03:49:26.421Z,16.45
2017-10-20T03:50:26.321Z,16.45
2017-10-20T03:51:26.240Z,16.50
2017-10-20T03:52:26.163Z,16.35
2017-10-20T03:53:26.080Z,16.42
2017-10-20T03:54:26.016Z,16.41
2017-10-20T03:55:25.918Z,16.33
2017-10-20T03:56:25.843Z,16.50
2017-10-20T03:57:25.755Z,16.52
2017-10-20T03:58:25.679Z,16.52
2017-10-20T03:59:25.600Z,16.44
2017-10-20T04:00:25.509Z,16.27
2017-10-20T04:01:25.437Z,16.31
2017-10-20T04:02:25.368Z,16.37
2017-10-20T04:03:25.274Z,16.45
2017-10-20T04:04:25.186Z,16.42
2017-10-20T04:05:25.110Z,16.55
2017-10-20T04:06:25.047Z,16.50
2017-10-20T04:07:24.952Z,16.49
2017-10-20T04:08:24.863Z,16.52
2017-10-20T04:09:24.819Z,16.49
2017-10-20T04:10:24.711Z,16.52
2017-10-20T04:11:24.623Z,16.53
2017-10-20T04:12:24.542Z,16.52
2017-10-20T04:13:24.481Z,16.52
2017-10-20T04:14:24.381Z,16.48
2017-10-20T04:15:24.308Z,16.56
2017-10-20T04:16:24.220Z,16.49
2017-10-20T04:17:24.140Z,16.59
2017-10-20T04:18:24.059Z,16.60
2017-10-20T04:19:23.990Z,16.60
2017-10-20T04:20:23.900Z,16.60
2017-10-20T04:21:23.818Z,16.53
2017-10-20T04:22:23.748Z,16.40
2017-10-20T04:23:23.658Z,16.35
2017-10-20T04:24:23.577Z,16.50
2017-10-20T04:25:23.497Z,16.49
2017-10-20T04:26:23.426Z,16.33
2017-10-20T04:27:23.337Z,16.45
2017-10-20T04:28:23.251Z,16.45
2017-10-20T04:29:23.202Z,16.52
2017-10-20T04:30:23.105Z,16.44
2017-10-20T04:31:23.013Z,16.45
2017-10-20T04:32:22.925Z,16.53
2017-10-20T04:33:22.849Z,16.37
2017-10-20T04:34:22.767Z,16.42
2017-10-20T04:35:22.693Z,16.41
2017-10-20T04:36:22.611Z,16.40
2017-10-20T04:37:22.535Z,16.50
2017-10-20T04:38:22.449Z,16.35
2017-10-20T04:39:22.365Z,16.41
2017-10-20T04:40:22.288Z,16.38
2017-10-20T04:41:22.211Z,16.40
2017-10-20T04:42:22.119Z,16.45
2017-10-20T04:43:22.038Z,16.49
2017-10-20T04:44:21.961Z,16.56
2017-10-20T04:45:21.880Z,16.67
2017-10-20T04:46:21.796Z,16.52
2017-10-20T04:47:21.718Z,16.50
2017-10-20T04:48:21.638Z,16.55
2017-10-20T04:49:21.568Z,16.52
2017-10-20T04:50:21.484Z,16.60
2017-10-20T04:51:21.402Z,16.48
2017-10-20T04:52:21.316Z,16.55
2017-10-20T04:53:21.229Z,16.53
2017-10-20T04:54:21.157Z,16.55
2017-10-20T04:55:21.073Z,16.60
2017-10-20T04:56:20.995Z,16.38
2017-10-20T04:57:20.916Z,16.38
2017-10-20T04:58:20.833Z,16.40
2017-10-20T04:59:20.747Z,16.42
2017-10-20T05:00:20.669Z,16.48
2017-10-20T05:01:20.589Z,16.49
2017-10-20T05:02:20.520Z,16.50
2017-10-20T05:03:20.426Z,16.37
2017-10-20T05:04:20.345Z,16.27
2017-10-20T05:05:20.266Z,16.40
2017-10-20T05:06:20.181Z,16.38
2017-10-20T05:07:20.110Z,16.33
2017-10-20T05:08:20.025Z,16.26
2017-10-20T05:09:19.942Z,16.26
2017-10-20T05:10:19.869Z,16.41
2017-10-20T05:11:19.784Z,16.33
2017-10-20T05:12:19.702Z,16.34
2017-10-20T05:13:19.640Z,16.42
2017-10-20T05:14:19.541Z,16.27
2017-10-20T05:15:19.453Z,16.26
2017-10-20T05:16:19.371Z,16.33
2017-10-20T05:17:19.302Z,16.26
2017-10-20T05:18:19.208Z,16.26
2017-10-20T05:19:19.150Z,16.23
2017-10-20T05:20:19.049Z,16.22
2017-10-20T05:21:18.975Z,16.25
2017-10-20T05:22:18.893Z,16.30
2017-10-20T05:23:18.816Z,16.33
2017-10-20T05:24:18.733Z,16.41
2017-10-20T05:25:18.671Z,16.35
2017-10-20T05:26:18.575Z,16.31
2017-10-20T05:27:18.489Z,16.22
2017-10-20T05:28:18.406Z,16.26
2017-10-20T05:29:18.320Z,16.34
2017-10-20T05:30:18.260Z,16.35
2017-10-20T05:31:18.162Z,16.14
2017-10-20T05:32:18.082Z,16.07
2017-10-20T05:33:18.023Z,16.25
2017-10-20T05:34:17.919Z,16.12
2017-10-20T05:35:17.842Z,16.12
2017-10-20T05:36:17.773Z,16.23
2017-10-20T05:37:17.690Z,16.33
2017-10-20T05:38:17.596Z,16.23
2017-10-20T05:39:17.534Z,16.41
2017-10-20T05:40:17.439Z,16.38
2017-10-20T05:41:17.358Z,16.35
2017-10-20T05:42:17.276Z,16.23
2017-10-20T05:43:17.199Z,16.01
2017-10-20T05:44:17.117Z,16.14
2017-10-20T05:45:17.038Z,16.26
2017-10-20T05:46:16.947Z,16.23
2017-10-20T05:47:16.899Z,16.23
2017-10-20T05:48:16.793Z,16.26
2017-10-20T05:49:16.711Z,16.14
2017-10-20T05:50:16.662Z,15.97
2017-10-20T05:51:16.553Z,15.99
2017-10-20T05:52:16.463Z,16.07
2017-10-20T05:53:16.388Z,16.16
2017-10-20T05:54:16.315Z,16.18
2017-10-20T05:55:16.222Z,16.25
2017-10-20T05:56:16.145Z,16.22
2017-10-20T05:57:16.113Z,16.30
2017-10-20T05:58:15.987Z,16.25
2017-10-20T05:59:15.897Z,16.35
2017-10-20T06:00:15.823Z,16.38
2017-10-20T06:01:15.753Z,16.33
2017-10-20T06:02:15.659Z,16.37
2017-10-20T06:03:15.591Z,16.34
2017-10-20T06:04:15.509Z,16.31
2017-10-20T06:05:15.434Z,16.23
2017-10-20T06:06:15.337Z,16.26
2017-10-20T06:07:15.249Z,16.34
2017-10-20T06:08:15.175Z,16.41
2017-10-20T06:09:15.090Z,16.38
2017-10-20T06:10:15.004Z,16.45
2017-10-20T06:11:14.923Z,16.42
2017-10-20T06:12:14.843Z,16.41
2017-10-20T06:13:14.771Z,16.45
2017-10-20T06:14:14.692Z,16.49
2017-10-20T06:15:14.638Z,16.34
2017-10-20T06:16:14.524Z,16.40
2017-10-20T06:17:14.436Z,16.27
2017-10-20T06:18:14.413Z,16.14
2017-10-20T06:19:14.282Z,16.33
2017-10-20T06:20:14.203Z,16.38
2017-10-20T06:21:14.118Z,16.35
2017-10-20T06:22:14.034Z,16.35
2017-10-20T06:23:13.961Z,16.44
2017-10-20T06:24:13.877Z,16.41
2017-10-20T06:25:13.805Z,16.48
2017-10-20T06:26:13.736Z,16.30
2017-10-20T06:27:13.630Z,16.34
2017-10-20T06:28:13.553Z,16.34
2017-10-20T06:29:13.468Z,16.30
2017-10-20T06:30:13.395Z,16.37
2017-10-20T06:31:13.324Z,16.42
2017-10-20T06:32:13.236Z,16.50
2017-10-20T06:33:13.154Z,16.48
2017-10-20T06:34:13.063Z,16.49
2017-10-20T06:35:13.611Z,16.67
2017-10-20T06:36:12.950Z,16.42
2017-10-20T06:37:12.826Z,16.50
2017-10-20T06:38:12.752Z,16.53
2017-10-20T06:39:12.684Z,16.45
2017-10-20T06:40:12.581Z,16.62
2017-10-20T06:41:12.500Z,16.55
2017-10-20T06:42:12.434Z,16.53
2017-10-20T06:43:12.338Z,16.49
2017-10-20T06:44:12.262Z,16.50
2017-10-20T06:45:12.180Z,16.31
2017-10-20T06:46:12.098Z,16.23
2017-10-20T06:47:12.018Z,16.35
2017-10-20T06:48:11.933Z,16.41
2017-10-20T06:49:11.853Z,16.44
2017-10-20T06:50:11.774Z,16.35
2017-10-20T06:51:11.694Z,16.45
2017-10-20T06:52:11.612Z,16.53
2017-10-20T06:53:11.541Z,16.49
2017-10-20T06:54:11.453Z,16.53
2017-10-20T06:55:11.396Z,16.53
2017-10-20T06:56:11.289Z,16.48
2017-10-20T06:57:11.222Z,16.67
2017-10-20T06:58:11.128Z,16.55
2017-10-20T06:59:11.079Z,16.62
2017-10-20T07:00:10.965Z,16.67
2017-10-20T07:01:10.884Z,16.71
2017-10-20T07:02:10.799Z,16.70
2017-10-20T07:03:10.722Z,16.67
2017-10-20T07:04:10.639Z,16.62
2017-10-20T07:05:10.565Z,16.67
2017-10-20T07:06:10.494Z,16.55
2017-10-20T07:07:10.426Z,16.48
2017-10-20T07:08:10.325Z,16.50
2017-10-20T07:09:10.247Z,16.44
2017-10-20T07:10:10.156Z,16.62
2017-10-20T07:11:10.089Z,16.55
2017-10-20T07:12:10.002Z,16.49
2017-10-20T07:13:09.914Z,16.50
2017-10-20T07:14:09.844Z,16.59
2017-10-20T07:15:09.760Z,16.55
2017-10-20T07:16:09.670Z,16.58
2017-10-20T07:17:09.605Z,16.68
2017-10-20T07:18:09.515Z,16.49
2017-10-20T07:19:09.439Z,16.53
2017-10-20T07:20:09.357Z,16.56
2017-10-20T07:21:09.270Z,16.50
2017-10-20T07:22:09.192Z,16.45
2017-10-20T07:23:09.108Z,16.49
2017-10-20T07:24:09.025Z,16.62
2017-10-20T07:25:08.954Z,16.58
2017-10-20T07:26:08.869Z,16.44
2017-10-20T07:27:08.779Z,16.50
2017-10-20T07:28:08.706Z,16.49
2017-10-20T07:29:08.624Z,16.38
2017-10-20T07:30:08.542Z,16.50
2017-10-20T07:31:08.460Z,16.56
2017-10-20T07:32:08.380Z,16.56
2017-10-20T07:33:08.304Z,16.60
2017-10-20T07:34:08.245Z,16.67
2017-10-20T07:35:08.146Z,16.59
2017-10-20T07:36:08.057Z,16.62
2017-10-20T07:37:07.977Z,16.59
2017-10-20T07:38:07.897Z,16.65
2017-10-20T07:39:07.815Z,16.65
2017-10-20T07:40:07.739Z,16.60
2017-10-20T07:41:07.660Z,16.63
2017-10-20T07:42:07.580Z,16.70
2017-10-20T07:43:07.501Z,16.74
2017-10-20T07:44:07.423Z,16.68
2017-10-20T07:45:07.334Z,16.59
2017-10-20T07:46:07.254Z,16.68
2017-10-20T07:47:07.178Z,16.70
2017-10-20T07:48:07.095Z,16.60
2017-10-20T07:49:07.021Z,16.68
2017-10-20T07:50:06.927Z,16.81
2017-10-20T07:51:06.846Z,16.86
2017-10-20T07:52:06.778Z,16.86
2017-10-20T07:53:06.684Z,16.88
2017-10-20T07:54:06.620Z,16.85
2017-10-20T07:55:06.530Z,16.95
2017-10-20T07:56:06.452Z,16.77
2017-10-20T07:57:06.364Z,16.73
2017-10-20T07:58:06.301Z,16.93
2017-10-20T07:59:06.207Z,16.83
2017-10-20T08:00:06.125Z,16.90
2017-10-20T08:01:06.059Z,16.92
2017-10-20T08:02:05.963Z,16.99
2017-10-20T08:03:05.887Z,16.98
2017-10-20T08:04:05.798Z,17.04
2017-10-20T08:05:05.718Z,16.95
2017-10-20T08:06:05.654Z,16.92
2017-10-20T08:07:05.566Z,16.88
2017-10-20T08:08:05.488Z,16.93
2017-10-20T08:09:05.416Z,16.95
2017-10-20T08:10:05.323Z,16.96
2017-10-20T08:11:05.274Z,16.93
2017-10-20T08:12:05.167Z,16.99
2017-10-20T08:13:05.085Z,16.92
2017-10-20T08:14:05.007Z,16.98
2017-10-20T08:15:04.940Z,17.08
2017-10-20T08:16:04.844Z,17.08
2017-10-20T08:17:04.757Z,17.15
2017-10-20T08:18:04.719Z,17.17
2017-10-20T08:19:04.626Z,17.06
2017-10-20T08:20:04.527Z,17.17
2017-10-20T08:21:04.442Z,17.15
2017-10-20T08:22:04.363Z,17.20
2017-10-20T08:23:04.287Z,17.13
2017-10-20T08:24:04.213Z,17.15
2017-10-20T08:25:04.127Z,17.22
2017-10-20T08:26:04.044Z,17.35
2017-10-20T08:27:03.962Z,17.23
2017-10-20T08:28:03.884Z,17.18
2017-10-20T08:29:03.804Z,16.99
2017-10-20T08:30:03.732Z,17.11
2017-10-20T08:31:03.657Z,17.26
2017-10-20T08:32:03.576Z,17.36
2017-10-20T08:33:03.490Z,17.08
2017-10-20T08:34:03.407Z,17.22
2017-10-20T08:35:03.336Z,17.25
2017-10-20T08:36:03.307Z,17.26
2017-10-20T08:37:03.180Z,17.43
2017-10-20T08:38:03.088Z,17.48
2017-10-20T08:39:03.017Z,17.44
2017-10-20T08:40:02.928Z,17.51
2017-10-20T08:41:02.864Z,17.44
2017-10-20T08:42:02.783Z,17.51
2017-10-20T08:43:02.703Z,17.59
2017-10-20T08:44:02.613Z,17.53
2017-10-20T08:45:02.539Z,17.51
2017-10-20T08:46:02.451Z,17.62
2017-10-20T08:47:02.376Z,17.36
2017-10-20T08:48:02.295Z,17.48
2017-10-20T08:49:02.212Z,17.41
2017-10-20T08:50:02.139Z,17.47
2017-10-20T08:51:02.060Z,17.41
2017-10-20T08:52:01.995Z,17.57
2017-10-20T08:53:01.891Z,17.67
2017-10-20T08:54:01.821Z,17.69
2017-10-20T08:55:01.734Z,17.78
2017-10-20T08:56:01.693Z,17.78
2017-10-20T08:57:01.584Z,17.88
2017-10-20T08:58:01.495Z,17.92
2017-10-20T08:59:01.431Z,17.81
2017-10-20T09:00:01.343Z,17.89
2017-10-20T09:01:01.263Z,17.94
2017-10-20T09:02:01.179Z,17.99
2017-10-20T09:03:01.103Z,18.10
2017-10-20T09:04:01.023Z,17.97
2017-10-20T09:05:00.945Z,17.69
2017-10-20T09:06:00.858Z,17.89
2017-10-20T09:07:00.787Z,18.36
2017-10-20T09:08:00.703Z,18.58
2017-10-20T09:09:00.627Z,18.90
2017-10-20T09:10:00.560Z,19.10
2017-10-20T09:11:00.464Z,19.29
2017-10-20T09:12:00.421Z,19.18
2017-10-20T09:13:00.317Z,19.21
2017-10-20T09:14:00.240Z,19.15
2017-10-20T09:15:00.169Z,18.83
2017-10-20T09:16:00.091Z,18.57
2017-10-20T09:17:00.010Z,18.57
2017-10-20T09:17:59.924Z,18.70
2017-10-20T09:18:59.867Z,18.70
2017-10-20T09:19:59.777Z,18.79
2017-10-20T09:20:59.696Z,18.86
2017-10-20T09:21:59.614Z,19.40
2017-10-20T09:22:59.543Z,19.57
2017-10-20T09:23:59.465Z,19.39
2017-10-20T09:24:59.378Z,18.73
2017-10-20T09:25:59.311Z,18.83
2017-10-20T09:26:59.219Z,18.86
2017-10-20T09:27:59.147Z,18.83
2017-10-20T09:28:59.075Z,18.44
2017-10-20T09:29:58.986Z,18.52
2017-10-20T09:30:58.905Z,18.61
2017-10-20T09:31:58.837Z,18.44
2017-10-20T09:32:58.760Z,18.64
2017-10-20T09:33:58.681Z,18.77
2017-10-20T09:34:58.592Z,18.92
2017-10-20T09:35:58.518Z,19.01
2017-10-20T09:36:58.431Z,19.55
2017-10-20T09:37:58.361Z,20.43
2017-10-20T09:38:58.277Z,20.33
2017-10-20T09:39:58.195Z,20.16
2017-10-20T09:40:58.120Z,20.06
2017-10-20T09:41:58.047Z,19.94
2017-10-20T09:42:57.965Z,19.75
2017-10-20T09:43:57.885Z,19.69
2017-10-20T09:44:57.815Z,19.65
2017-10-20T09:45:57.733Z,19.50
2017-10-20T09:46:57.651Z,19.35
2017-10-20T09:47:57.580Z,19.36
2017-10-20T09:48:57.504Z,19.28
2017-10-20T09:49:57.422Z,19.15
2017-10-20T09:50:57.354Z,18.77
2017-10-20T09:51:57.265Z,18.77
2017-10-20T09:52:57.180Z,18.73
2017-10-20T09:53:57.127Z,18.61
2017-10-20T09:54:57.031Z,18.79
2017-10-20T09:55:56.942Z,18.72
2017-10-20T09:56:56.870Z,18.83
2017-10-20T09:57:56.796Z,18.74
2017-10-20T09:58:56.717Z,18.47
2017-10-20T09:59:56.665Z,18.58
2017-10-20T10:00:56.545Z,18.57
2017-10-20T10:01:56.494Z,18.62
2017-10-20T10:02:56.383Z,18.72
2017-10-20T10:03:56.306Z,18.40
2017-10-20T10:04:56.229Z,18.43
2017-10-20T10:05:56.155Z,18.46
2017-10-20T10:06:56.068Z,18.55
2017-10-20T10:07:55.989Z,18.55
2017-10-20T10:08:55.913Z,18.52
2017-10-20T10:09:55.827Z,18.54
2017-10-20T10:10:55.752Z,18.43
2017-10-20T10:11:55.685Z,18.43
2017-10-20T10:12:55.590Z,18.28
2017-10-20T10:13:55.510Z,18.31
2017-10-20T10:14:55.434Z,18.39
2017-10-20T10:15:55.371Z,18.31
2017-10-20T10:16:55.289Z,18.42
2017-10-20T10:17:55.193Z,18.34
2017-10-20T10:18:55.116Z,18.39
2017-10-20T10:19:55.047Z,18.44
2017-10-20T10:20:54.952Z,18.39
2017-10-20T10:21:54.874Z,18.37
2017-10-20T10:22:54.817Z,18.40
2017-10-20T10:23:54.723Z,18.40
2017-10-20T10:24:54.637Z,18.46
2017-10-20T10:25:54.553Z,18.46
2017-10-20T10:26:54.478Z,18.46
2017-10-20T10:27:54.407Z,18.42
2017-10-20T10:28:54.324Z,18.52
2017-10-20T10:29:54.242Z,18.50
2017-10-20T10:30:54.167Z,18.40
2017-10-20T10:31:54.084Z,18.34
2017-10-20T10:32:53.998Z,18.40
2017-10-20T10:33:53.920Z,18.36
2017-10-20T10:34:53.844Z,18.36
2017-10-20T10:35:53.766Z,18.31
2017-10-20T10:36:53.680Z,18.31
2017-10-20T10:37:53.604Z,18.39
2017-10-20T10:38:53.526Z,18.46
2017-10-20T10:39:53.443Z,18.31
2017-10-20T10:40:53.372Z,18.18
2017-10-20T10:41:53.305Z,18.31
2017-10-20T10:42:53.276Z,18.36
2017-10-20T10:43:53.130Z,18.12
2017-10-20T10:44:53.055Z,18.18
2017-10-20T10:45:52.994Z,18.24
2017-10-20T10:46:52.879Z,18.42
2017-10-20T10:47:52.815Z,18.39
2017-10-20T10:48:52.728Z,18.42
2017-10-20T10:49:52.645Z,18.50
2017-10-20T10:50:52.566Z,18.39
2017-10-20T10:51:52.486Z,18.40
2017-10-20T10:52:52.408Z,18.42
2017-10-20T10:53:52.324Z,18.42
2017-10-20T10:54:52.244Z,18.43
2017-10-20T10:55:52.165Z,18.50
2017-10-20T10:56:52.090Z,18.39
2017-10-20T10:57:52.010Z,18.49
2017-10-20T10:58:51.925Z,18.46
2017-10-20T10:59:51.844Z,18.46
2017-10-20T11:00:51.762Z,18.46
2017-10-20T11:01:51.682Z,18.39
2017-10-20T11:02:51.639Z,18.49
2017-10-20T11:03:51.534Z,18.47
2017-10-20T11:04:51.451Z,18.57
2017-10-20T11:05:51.360Z,18.61
2017-10-20T11:06:51.289Z,18.59
2017-10-20T11:07:51.202Z,18.61
2017-10-20T11:08:51.124Z,18.61
2017-10-20T11:09:51.055Z,18.68
2017-10-20T11:10:50.964Z,18.80
2017-10-20T11:11:50.897Z,18.83
2017-10-20T11:12:50.802Z,18.82
2017-10-20T11:13:50.725Z,18.80
2017-10-20T11:14:50.648Z,18.83
2017-10-20T11:15:50.562Z,18.86
2017-10-20T11:16:50.487Z,19.01
2017-10-20T11:17:50.409Z,18.95
2017-10-20T11:18:50.321Z,19.01
2017-10-20T11:19:50.246Z,18.91
2017-10-20T11:20:50.191Z,18.98
2017-10-20T11:21:50.096Z,18.99
2017-10-20T11:22:50.019Z,18.94
2017-10-20T11:23:49.932Z,18.94
2017-10-20T11:24:49.861Z,18.97
2017-10-20T11:25:49.767Z,18.95
2017-10-20T11:26:49.684Z,19.01
2017-10-20T11:27:49.613Z,18.99
2017-10-20T11:28:49.532Z,19.10
2017-10-20T11:29:49.448Z,19.13
2017-10-20T11:30:49.382Z,19.05
2017-10-20T11:31:49.282Z,19.08
2017-10-20T11:32:49.213Z,19.06
2017-10-20T11:33:49.124Z,19.15
2017-10-20T11:34:49.047Z,19.15
2017-10-20T11:35:48.966Z,19.08
2017-10-20T11:36:48.893Z,19.08
2017-10-20T11:37:48.800Z,19.13
2017-10-20T11:38:48.781Z,19.11
2017-10-20T11:39:48.654Z,19.15
2017-10-20T11:40:48.579Z,19.17
2017-10-20T11:41:48.490Z,19.21
2017-10-20T11:42:48.410Z,19.13
2017-10-20T11:43:48.331Z,19.24
2017-10-20T11:44:48.250Z,19.15
2017-10-20T11:45:48.165Z,19.17
2017-10-20T11:46:48.099Z,19.14
2017-10-20T11:47:48.006Z,19.23
2017-10-20T11:48:47.920Z,19.21
2017-10-20T11:49:47.851Z,19.20
2017-10-20T11:50:47.780Z,19.17
2017-10-20T11:51:47.680Z,19.23
2017-10-20T11:52:47.609Z,19.17
2017-10-20T11:53:47.526Z,19.21
2017-10-20T11:54:47.450Z,19.32
2017-10-20T11:55:47.381Z,19.28
2017-10-20T11:56:47.301Z,19.28
2017-10-20T11:57:47.223Z,19.24
2017-10-20T11:58:47.123Z,19.20
2017-10-20T11:59:47.054Z,19.25
2017-10-20T12:00:46.969Z,19.32
2017-10-20T12:01:46.884Z,19.24
2017-10-20T12:02:46.839Z,19.28
2017-10-20T12:03:46.767Z,19.31
2017-10-20T12:04:46.650Z,19.38
2017-10-20T12:05:46.579Z,19.28
2017-10-20T12:06:46.497Z,19.39
2017-10-20T12:07:46.418Z,19.40
2017-10-20T12:08:46.331Z,19.35
2017-10-20T12:09:46.255Z,19.43
2017-10-20T12:10:46.172Z,19.39
2017-10-20T12:11:46.098Z,19.46
2017-10-20T12:12:46.014Z,19.48
2017-10-20T12:13:45.937Z,19.38
2017-10-20T12:14:45.859Z,19.35
2017-10-20T12:15:45.782Z,19.36
2017-10-20T12:16:45.700Z,19.46
2017-10-20T12:17:45.617Z,19.35
2017-10-20T12:18:45.532Z,19.38
2017-10-20T12:19:45.469Z,19.38
2017-10-20T12:20:45.378Z,19.42
2017-10-20T12:21:45.298Z,19.36
2017-10-20T12:22:45.215Z,19.40
2017-10-20T12:23:45.142Z,19.35
2017-10-20T12:24:45.056Z,19.39
2017-10-20T12:25:44.980Z,19.46
2017-10-20T12:26:44.893Z,19.63
2017-10-20T12:27:44.823Z,19.63
2017-10-20T12:28:44.738Z,19.58
2017-10-20T12:29:44.680Z,19.66
2017-10-20T12:30:44.576Z,19.63
2017-10-20T12:31:44.491Z,19.78
2017-10-20T12:32:44.413Z,19.66
2017-10-20T12:33:44.342Z,19.68
2017-10-20T12:34:44.273Z,19.69
2017-10-20T12:35:44.185Z,19.63
2017-10-20T12:36:44.115Z,19.72
2017-10-20T12:37:44.018Z,19.65
2017-10-20T12:38:43.950Z,19.66
2017-10-20T12:39:43.866Z,19.50
2017-10-20T12:40:43.778Z,19.48
2017-10-20T12:41:43.697Z,19.51
2017-10-20T12:42:43.617Z,19.54
2017-10-20T12:43:43.570Z,19.53
2017-10-20T12:44:43.465Z,19.47
2017-10-20T12:45:43.373Z,19.51
2017-10-20T12:46:43.299Z,19.50
2017-10-20T12:47:43.218Z,19.58
2017-10-20T12:48:43.143Z,19.66
2017-10-20T12:49:43.061Z,19.55
2017-10-20T12:50:42.985Z,19.55
2017-10-20T12:51:42.905Z,19.60